Time;durP1;ratioP1;P1;durP2;ratioP2;P2;SDS_P1;SDS_P2;PMS_P1;PMS_P2;Temp;Humidity;BMP_temperature;BMP_pressure;BME280_temperature;BME280_humidity;BME280_pressure;Samples;Min_cycle;Max_cycle;Signal;HPM_P1;HPM_P2
2024/02/25 00:04:29;;;;;;;;;;;;;;;17.47;42.63;98341.44;10370443;28;1922;-70
2024/02/25 00:09:24;;;;;;;;;;;;;;;17.45;42.67;98336.28;10370792;28;917;-70
2024/02/25 00:14:20;;;;;;;;;;;;;;;17.44;42.67;98331.09;10370685;28;801;-70
2024/02/25 00:19:16;;;;;;;;;;;;;;;17.44;42.84;98320.56;10369855;28;838;-70
2024/02/25 00:24:13;;;;;;;;;;;;;;;17.41;42.77;98324.25;10370229;28;1901;-70
2024/02/25 00:29:14;;;;;;;;;;;;;;;17.41;42.65;98320.78;10369359;28;1547;-70
2024/02/25 00:34:10;;;;;;;;;;;;;;;17.41;42.65;98320.78;10369533;28;848;-70
2024/02/25 00:39:07;;;;;;;;;;;;;;;17.39;42.81;98315.59;10369114;28;810;-70
2024/02/25 00:44:03;;;;;;;;;;;;;;;17.38;42.90;98310.44;10368890;28;1918;-70
2024/02/25 00:48:59;;;;;;;;;;;;;;;17.38;42.87;98310.44;10369334;28;936;-70
2024/02/25 00:53:55;;;;;;;;;;;;;;;17.37;42.82;98311.38;10368536;28;766;-70
2024/02/25 00:58:51;;;;;;;;;;;;;;;17.36;42.80;98307.06;10368375;28;794;-70
2024/02/25 01:03:47;;;;;;;;;;;;;;;17.34;42.95;98304.50;10368074;28;1901;-70
2024/02/25 01:08:44;;;;;;;;;;;;;;;17.34;42.76;98303.66;10367951;28;858;-70
2024/02/25 01:13:40;;;;;;;;;;;;;;;17.32;42.98;98290.63;10368500;28;897;-70
2024/02/25 01:18:35;;;;;;;;;;;;;;;17.32;42.70;98290.63;10367657;28;833;-70
2024/02/25 01:23:31;;;;;;;;;;;;;;;17.31;42.97;98289.75;10368002;28;1963;-70
2024/02/25 01:28:27;;;;;;;;;;;;;;;17.30;42.80;98284.59;10366886;28;1087;-70
2024/02/25 01:33:23;;;;;;;;;;;;;;;17.30;42.98;98284.59;10368446;28;951;-70
2024/02/25 01:38:19;;;;;;;;;;;;;;;17.29;42.93;98267.97;10367040;28;842;-69
2024/02/25 01:43:15;;;;;;;;;;;;;;;17.27;42.96;98261.94;10366624;28;1913;-70
2024/02/25 01:48:11;;;;;;;;;;;;;;;17.27;42.73;98261.09;10366824;28;900;-70
2024/02/25 01:53:07;;;;;;;;;;;;;;;17.26;42.75;98264.66;10365308;28;837;-70
2024/02/25 01:58:03;;;;;;;;;;;;;;;17.25;42.86;98262.97;10366622;28;858;-70
2024/02/25 02:02:59;;;;;;;;;;;;;;;17.23;42.85;98255.16;10366330;28;1959;-70
2024/02/25 02:07:55;;;;;;;;;;;;;;;17.23;42.64;98242.00;10367203;28;848;-70
2024/02/25 02:12:51;;;;;;;;;;;;;;;17.22;42.74;98236.84;10366478;28;789;-70
2024/02/25 02:17:48;;;;;;;;;;;;;;;17.21;42.89;98236.00;10366205;28;801;-70
2024/02/25 02:22:44;;;;;;;;;;;;;;;17.20;42.80;98236.94;10366580;28;1906;-70
2024/02/25 02:27:40;;;;;;;;;;;;;;;17.20;42.84;98239.56;10365934;28;769;-70
2024/02/25 02:32:36;;;;;;;;;;;;;;;17.19;43.08;98235.25;10366303;28;1111;-71
2024/02/25 02:37:32;;;;;;;;;;;;;;;17.19;43.03;98227.38;10366320;28;830;-70
2024/02/25 02:42:27;;;;;;;;;;;;;;;17.19;42.91;98227.38;10366040;28;1973;-70
2024/02/25 02:47:23;;;;;;;;;;;;;;;17.19;42.80;98226.53;10365603;28;813;-70
2024/02/25 02:52:19;;;;;;;;;;;;;;;17.18;43.04;98224.81;10365529;28;798;-70
2024/02/25 02:57:15;;;;;;;;;;;;;;;17.18;42.91;98225.66;10365473;28;928;-70
2024/02/25 03:02:11;;;;;;;;;;;;;;;17.18;42.91;98230.09;10365179;28;1897;-70
2024/02/25 03:07:07;;;;;;;;;;;;;;;17.17;42.83;98218.72;10371598;28;789;-70
2024/02/25 03:12:03;;;;;;;;;;;;;;;17.15;42.89;98217.97;10371917;28;852;-70
2024/02/25 03:16:58;;;;;;;;;;;;;;;17.15;42.87;98220.59;10373043;28;829;-70
2024/02/25 03:21:54;;;;;;;;;;;;;;;17.13;42.88;98225.09;10372144;28;1897;-70
2024/02/25 03:26:51;;;;;;;;;;;;;;;17.11;42.72;98223.50;10371372;28;1133;-70
2024/02/25 03:31:47;;;;;;;;;;;;;;;17.08;42.92;98214.91;10372388;28;1092;-71
2024/02/25 03:36:43;;;;;;;;;;;;;;;17.06;42.63;98211.50;10371605;28;1021;-71
2024/02/25 03:41:39;;;;;;;;;;;;;;;17.04;42.70;98213.41;10372006;28;1974;-70
2024/02/25 03:46:34;;;;;;;;;;;;;;;17.01;42.65;98220.66;10370520;28;880;-70
2024/02/25 03:51:30;;;;;;;;;;;;;;;17.00;42.83;98217.19;10371679;28;926;-70
2024/02/25 03:56:26;;;;;;;;;;;;;;;17.00;42.68;98222.44;10371634;28;1014;-70
2024/02/25 04:01:25;;;;;;;;;;;;;;;17.00;42.73;98221.59;10370577;28;1890;-70
2024/02/25 04:06:21;;;;;;;;;;;;;;;16.99;42.71;98218.09;10371689;28;889;-70
2024/02/25 04:11:17;;;;;;;;;;;;;;;16.99;42.84;98212.84;10369711;28;980;-70
2024/02/25 04:16:13;;;;;;;;;;;;;;;16.99;42.73;98214.63;10369282;28;781;-70
2024/02/25 04:21:09;;;;;;;;;;;;;;;16.98;42.69;98218.22;10370453;28;1952;-70
2024/02/25 04:26:04;;;;;;;;;;;;;;;16.98;42.85;98224.31;10369082;28;769;-70
2024/02/25 04:31:00;;;;;;;;;;;;;;;16.97;42.76;98221.78;10369950;28;1563;-70
2024/02/25 04:35:56;;;;;;;;;;;;;;;16.97;42.86;98221.78;10369337;28;780;-70
2024/02/25 04:40:53;;;;;;;;;;;;;;;16.98;42.76;98223.50;10369751;28;1922;-70
2024/02/25 04:45:49;;;;;;;;;;;;;;;17.00;42.69;98221.59;10368433;28;859;-71
2024/02/25 04:50:45;;;;;;;;;;;;;;;17.00;42.89;98214.56;10369405;28;785;-70
2024/02/25 04:55:41;;;;;;;;;;;;;;;17.02;42.81;98224.97;10369177;28;866;-70
2024/02/25 05:00:38;;;;;;;;;;;;;;;17.04;42.64;98223.09;10367668;28;1963;-70
2024/02/25 05:05:34;;;;;;;;;;;;;;;17.05;42.82;98216.88;10368798;28;825;-70
2024/02/25 05:10:30;;;;;;;;;;;;;;;17.06;42.72;98211.50;10367523;28;987;-70
2024/02/25 05:15:26;;;;;;;;;;;;;;;17.07;42.64;98214.97;10367728;28;896;-70
2024/02/25 05:20:21;;;;;;;;;;;;;;;17.09;42.79;98221.00;10367033;28;1874;-70
2024/02/25 05:25:17;;;;;;;;;;;;;;;17.10;42.71;98222.69;10367502;28;915;-70
2024/02/25 05:30:13;;;;;;;;;;;;;;;17.12;42.82;98225.22;10366386;28;1312;-70
2024/02/25 05:35:09;;;;;;;;;;;;;;;17.12;42.83;98228.69;10367223;28;790;-70
2024/02/25 05:40:05;;;;;;;;;;;;;;;17.14;42.82;98233.88;10367771;28;851;-70
2024/02/25 05:45:01;;;;;;;;;;;;;;;17.15;42.86;98240.81;10366299;28;1906;-70
2024/02/25 05:49:58;;;;;;;;;;;;;;;17.16;42.78;98238.09;10366406;28;924;-71
2024/02/25 05:54:56;;;;;;;;;;;;;;;17.17;42.63;98244.19;10367404;28;807;-70
2024/02/25 05:59:52;;;;;;;;;;;;;;;17.18;42.79;98249.34;10366463;28;920;-70
2024/02/25 06:04:47;;;;;;;;;;;;;;;17.19;42.67;98252.84;10367207;28;1948;-72
2024/02/25 06:09:44;;;;;;;;;;;;;;;17.20;42.83;98255.38;10366346;28;766;-71
2024/02/25 06:14:39;;;;;;;;;;;;;;;17.21;42.81;98250.94;10366134;28;778;-68
2024/02/25 06:19:37;;;;;;;;;;;;;;;17.22;42.89;98252.66;10366229;28;892;-69
2024/02/25 06:24:33;;;;;;;;;;;;;;;17.23;42.83;98260.44;10365875;28;1944;-69
2024/02/25 06:29:29;;;;;;;;;;;;;;;17.24;42.87;98262.13;10365190;28;1305;-69
2024/02/25 06:34:24;;;;;;;;;;;;;;;17.27;42.93;98269.84;10365799;28;889;-69
2024/02/25 06:39:20;;;;;;;;;;;;;;;17.27;43.01;98269.84;10368700;28;939;-68
2024/02/25 06:44:16;;;;;;;;;;;;;;;17.27;42.82;98269.00;10374272;28;1905;-68
2024/02/25 06:49:12;;;;;;;;;;;;;;;17.28;42.99;98270.69;10374432;28;939;-68
2024/02/25 06:54:08;;;;;;;;;;;;;;;17.29;42.87;98278.50;10373379;28;817;-68
2024/02/25 06:59:04;;;;;;;;;;;;;;;17.29;42.83;98272.34;10373792;28;857;-72
2024/02/25 07:04:00;;;;;;;;;;;;;;;17.30;43.14;98285.44;10373519;28;1945;-72
2024/02/25 07:08:57;;;;;;;;;;;;;;;17.30;43.06;98277.53;10372080;28;1205;-68
2024/02/25 07:13:53;;;;;;;;;;;;;;;17.31;42.93;98283.63;10372485;28;769;-68
2024/02/25 07:18:48;;;;;;;;;;;;;;;17.32;42.90;98277.44;10372232;28;773;-68
2024/02/25 07:23:44;;;;;;;;;;;;;;;17.33;43.04;98292.28;10372169;28;1945;-68
2024/02/25 07:28:43;;;;;;;;;;;;;;;17.34;42.83;98303.66;10371932;28;1338;-69
2024/02/25 07:33:39;;;;;;;;;;;;;;;17.33;43.11;98296.72;10372707;28;837;-68
2024/02/25 07:38:35;;;;;;;;;;;;;;;17.34;42.91;98293.13;10371660;28;888;-72
2024/02/25 07:43:31;;;;;;;;;;;;;;;17.34;42.96;98299.25;10372196;28;1905;-68
2024/02/25 07:48:27;;;;;;;;;;;;;;;17.35;43.06;98295.69;10371991;28;924;-68
2024/02/25 07:53:23;;;;;;;;;;;;;;;17.37;42.95;98292.94;10370555;28;899;-73
2024/02/25 07:58:19;;;;;;;;;;;;;;;17.38;43.01;98302.53;10371235;28;850;-71
2024/02/25 08:03:15;;;;;;;;;;;;;;;17.38;43.02;98310.44;10370609;28;1890;-71
2024/02/25 08:08:10;;;;;;;;;;;;;;;17.38;43.10;98305.19;10371168;28;844;-70
2024/02/25 08:13:06;;;;;;;;;;;;;;;17.39;43.06;98301.59;10370304;28;769;-70
2024/02/25 08:18:02;;;;;;;;;;;;;;;17.40;43.07;98305.94;10370243;28;774;-71
2024/02/25 08:22:58;;;;;;;;;;;;;;;17.39;43.24;98302.41;10369800;28;1889;-70
2024/02/25 08:27:54;;;;;;;;;;;;;;;17.40;43.23;98303.28;10370575;28;897;-70
2024/02/25 08:32:50;;;;;;;;;;;;;;;17.40;42.87;98311.19;10359869;28;1350;-69
2024/02/25 08:37:49;;;;;;;;;;;;;;;17.39;42.94;98307.69;10199953;28;770;-69
2024/02/25 08:42:45;;;;;;;;;;;;;;;17.39;43.03;98315.59;10200084;28;1902;-69
2024/02/25 08:47:41;;;;;;;;;;;;;;;17.38;42.90;98311.28;10200020;28;859;-69
2024/02/25 08:52:37;;;;;;;;;;;;;;;17.38;42.83;98318.34;10200411;28;972;-69
2024/02/25 08:57:33;;;;;;;;;;;;;;;17.38;42.76;98318.34;10199785;28;956;-70
2024/02/25 09:02:29;;;;;;;;;;;;;;;17.38;42.90;98328.88;10199105;28;1894;-69
2024/02/25 09:07:25;;;;;;;;;;;;;;;17.35;42.74;98322.00;10199664;28;924;-70
2024/02/25 09:12:21;;;;;;;;;;;;;;;17.34;42.60;98320.31;10199825;28;862;-70
2024/02/25 09:17:17;;;;;;;;;;;;;;;17.33;42.69;98338.84;10199087;28;861;-70
2024/02/25 09:22:13;;;;;;;;;;;;;;;17.31;42.91;98325.78;10198878;28;1902;-70
2024/02/25 09:27:09;;;;;;;;;;;;;;;17.31;42.85;98333.69;10198852;28;1001;-71
2024/02/25 09:32:05;;;;;;;;;;;;;;;17.33;42.72;98328.31;10198318;28;1318;-71
2024/02/25 09:37:01;;;;;;;;;;;;;;;17.33;42.85;98320.44;10198329;28;793;-70
2024/02/25 09:41:56;;;;;;;;;;;;;;;17.32;43.01;98327.50;10199406;28;1961;-71
2024/02/25 09:46:52;;;;;;;;;;;;;;;17.34;43.06;98308.94;10198988;28;881;-70
2024/02/25 09:51:51;;;;;;;;;;;;;;;17.34;43.19;98322.09;10198085;28;762;-70
2024/02/25 09:56:50;;;;;;;;;;;;;;;17.36;43.47;98322.84;10198112;28;777;-71
2024/02/25 10:01:47;;;;;;;;;;;;;;;17.37;43.65;98327.16;10197865;28;1890;-70
2024/02/25 10:06:43;;;;;;;;;;;;;;;17.38;43.64;98315.72;10198002;28;1586;-70
2024/02/25 10:11:39;;;;;;;;;;;;;;;17.40;43.64;98319.09;10197558;28;960;-70
2024/02/25 10:16:35;;;;;;;;;;;;;;;17.40;43.58;98312.03;10202819;28;838;-70
2024/02/25 10:21:31;;;;;;;;;;;;;;;17.43;43.88;98316.25;10205170;28;1949;-70
2024/02/25 10:26:27;;;;;;;;;;;;;;;17.43;43.91;98313.63;10204527;28;969;-70
2024/02/25 10:31:23;;;;;;;;;;;;;;;17.44;43.99;98315.31;10204401;28;1249;-70
2024/02/25 10:36:24;;;;;;;;;;;;;;;17.46;44.06;98313.41;10169606;28;1459;-70
2024/02/25 10:41:20;;;;;;;;;;;;;;;17.48;43.84;98311.53;10125153;28;1922;-70
2024/02/25 10:46:15;;;;;;;;;;;;;;;17.50;43.90;98314.91;10125548;28;983;-70
2024/02/25 10:51:11;;;;;;;;;;;;;;;17.52;43.75;98308.59;10134074;28;1311;-70
2024/02/25 10:56:07;;;;;;;;;;;;;;;17.55;43.95;98301.44;10157799;28;1215;-71
2024/02/25 11:01:03;;;;;;;;;;;;;;;17.55;43.65;98302.28;10123796;28;1959;-71
2024/02/25 11:06:00;;;;;;;;;;;;;;;17.54;43.81;98300.59;10124405;28;803;-70
2024/02/25 11:10:55;;;;;;;;;;;;;;;17.55;43.83;98302.28;10124551;28;818;-70
2024/02/25 11:15:51;;;;;;;;;;;;;;;17.56;43.92;98298.72;10122903;28;941;-70
2024/02/25 11:20:47;;;;;;;;;;;;;;;17.57;43.91;98299.53;10123416;28;1886;-71
2024/02/25 11:25:43;;;;;;;;;;;;;;;17.56;43.88;98288.16;10123384;28;952;-70
2024/02/25 11:30:39;;;;;;;;;;;;;;;17.55;43.69;98290.91;10123278;28;1267;-70
2024/02/25 11:35:35;;;;;;;;;;;;;;;17.54;43.67;98292.69;10122825;28;893;-70
2024/02/25 11:40:32;;;;;;;;;;;;;;;17.54;43.79;98290.06;10122806;28;1993;-71
2024/02/25 11:45:28;;;;;;;;;;;;;;;17.53;43.70;98291.84;10122653;28;775;-70
2024/02/25 11:50:26;;;;;;;;;;;;;;;17.52;43.60;98286.66;10122850;28;871;-70
2024/02/25 11:55:22;;;;;;;;;;;;;;;17.53;43.89;98285.75;10128238;28;1629;-72
2024/02/25 12:00:18;;;;;;;;;;;;;;;17.52;43.75;98284.03;10122352;28;770;-70
2024/02/25 12:05:14;;;;;;;;;;;;;;;17.52;43.64;98271.69;10121945;28;1891;-70
2024/02/25 12:10:10;;;;;;;;;;;;;;;17.52;43.76;98271.69;10122639;28;810;-74
2024/02/25 12:15:06;;;;;;;;;;;;;;;17.53;43.81;98262.03;10122123;28;1594;-70
2024/02/25 12:20:02;;;;;;;;;;;;;;;17.53;43.78;98268.13;10122220;28;794;-70
2024/02/25 12:25:00;;;;;;;;;;;;;;;17.54;43.79;98263.72;10121292;28;1956;-70
2024/02/25 12:29:56;;;;;;;;;;;;;;;17.55;43.75;98257.47;10121023;28;1422;-70
2024/02/25 12:34:52;;;;;;;;;;;;;;;17.55;43.72;98257.47;10158128;28;1116;-70
2024/02/25 12:39:49;;;;;;;;;;;;;;;17.57;43.67;98249.50;10199804;28;846;-70
2024/02/25 12:44:44;;;;;;;;;;;;;;;17.57;43.62;98247.69;10199458;28;1907;-70
2024/02/25 12:49:40;;;;;;;;;;;;;;;17.57;43.42;98241.59;10200108;28;948;-70
2024/02/25 12:54:36;;;;;;;;;;;;;;;17.55;43.55;98239.03;10200568;28;937;-70
2024/02/25 12:59:32;;;;;;;;;;;;;;;17.55;43.58;98244.31;10200353;28;790;-70
2024/02/25 13:04:29;;;;;;;;;;;;;;;17.56;43.51;98243.38;10199749;28;1890;-70
2024/02/25 13:09:25;;;;;;;;;;;;;;;17.55;43.38;98238.19;10200125;28;895;-70
2024/02/25 13:14:21;;;;;;;;;;;;;;;17.57;43.40;98238.94;10199325;28;771;-70
2024/02/25 13:19:17;;;;;;;;;;;;;;;17.55;43.45;98228.50;10199062;28;861;-70
2024/02/25 13:24:13;;;;;;;;;;;;;;;17.57;43.45;98236.31;10199363;28;1961;-70
2024/02/25 13:29:09;;;;;;;;;;;;;;;17.56;43.25;98230.22;10199254;28;1298;-70
2024/02/25 13:34:05;;;;;;;;;;;;;;;17.58;43.30;98228.31;10198605;28;810;-69
2024/02/25 13:39:02;;;;;;;;;;;;;;;17.58;43.33;98228.31;10198225;28;858;-70
2024/02/25 13:43:58;;;;;;;;;;;;;;;17.58;43.53;98211.66;10198123;28;1906;-70
2024/02/25 13:48:54;;;;;;;;;;;;;;;17.59;43.53;98222.09;10197259;28;772;-70
2024/02/25 13:53:50;;;;;;;;;;;;;;;17.62;43.41;98213.97;10197897;28;795;-70
2024/02/25 13:58:46;;;;;;;;;;;;;;;17.65;43.53;98218.22;10197757;28;774;-70
2024/02/25 14:03:42;;;;;;;;;;;;;;;17.64;43.65;98206.00;10197584;28;1890;-70
2024/02/25 14:08:38;;;;;;;;;;;;;;;17.65;43.50;98205.88;10197403;28;952;-70
2024/02/25 14:13:34;;;;;;;;;;;;;;;17.66;43.53;98210.22;10197691;28;877;-70
2024/02/25 14:18:30;;;;;;;;;;;;;;;17.67;43.59;98200.50;10198508;28;861;-70
2024/02/25 14:23:26;;;;;;;;;;;;;;;17.71;43.49;98197.56;10197577;28;1950;-71
2024/02/25 14:28:21;;;;;;;;;;;;;;;17.76;43.64;98197.25;10196953;28;1263;-69
2024/02/25 14:33:17;;;;;;;;;;;;;;;17.87;43.41;98196.56;10196754;28;1186;-70
2024/02/25 14:38:13;;;;;;;;;;;;;;;17.80;43.52;98196.13;10196729;28;822;-70
2024/02/25 14:43:09;;;;;;;;;;;;;;;17.95;43.36;98195.09;10196550;28;1910;-79
2024/02/25 14:48:05;;;;;;;;;;;;;;;17.92;43.33;98195.31;10196630;28;843;-70
2024/02/25 14:53:01;;;;;;;;;;;;;;;18.08;43.25;98184.53;10196398;28;833;-70
2024/02/25 14:57:57;;;;;;;;;;;;;;;18.15;43.21;98184.94;10196933;28;790;-70
2024/02/25 15:02:53;;;;;;;;;;;;;;;18.11;43.21;98194.03;10201735;28;1886;-70
2024/02/25 15:07:50;;;;;;;;;;;;;;;18.26;42.97;98187.69;10202858;28;980;-70
2024/02/25 15:12:46;;;;;;;;;;;;;;;18.08;43.36;98188.97;10202675;28;901;-69
2024/02/25 15:17:44;;;;;;;;;;;;;;;18.02;43.35;98184.09;10202699;28;853;-70
2024/02/25 15:22:40;;;;;;;;;;;;;;;18.06;43.26;98185.59;10202426;28;1953;-69
2024/02/25 15:27:37;;;;;;;;;;;;;;;18.31;42.97;98177.66;10202244;28;1018;-70
2024/02/25 15:32:32;;;;;;;;;;;;;;;18.45;42.77;98171.41;10202605;28;1140;-70
2024/02/25 15:37:28;;;;;;;;;;;;;;;18.50;42.55;98163.16;10201870;28;921;-70
2024/02/25 15:42:28;;;;;;;;;;;;;;;18.58;42.60;98164.31;10201884;28;1911;-70
2024/02/25 15:47:24;;;;;;;;;;;;;;;18.62;42.34;98157.81;10201659;28;854;-70
2024/02/25 15:52:20;;;;;;;;;;;;;;;18.65;42.44;98158.56;10202254;28;753;-70
2024/02/25 15:57:16;;;;;;;;;;;;;;;18.66;42.46;98157.63;10202032;28;861;-70
2024/02/25 16:02:12;;;;;;;;;;;;;;;18.50;42.66;98147.34;10201302;28;1958;-69
2024/02/25 16:07:07;;;;;;;;;;;;;;;18.43;42.76;98157.47;10201233;28;810;-70
2024/02/25 16:12:03;;;;;;;;;;;;;;;18.41;42.65;98148.81;10185163;28;1103;-70
2024/02/25 16:16:59;;;;;;;;;;;;;;;18.35;42.67;98150.09;10161262;28;945;-69
2024/02/25 16:21:55;;;;;;;;;;;;;;;18.28;42.90;98153.28;10161922;28;1899;-70
2024/02/25 16:26:51;;;;;;;;;;;;;;;18.21;42.89;98152.88;10160564;28;1067;-70
2024/02/25 16:31:47;;;;;;;;;;;;;;;18.17;43.00;98152.25;10161716;28;1488;-70
2024/02/25 16:36:43;;;;;;;;;;;;;;;18.14;42.93;98147.19;10160903;28;817;-70
2024/02/25 16:41:38;;;;;;;;;;;;;;;18.11;42.86;98143.94;10160264;28;1910;-70
2024/02/25 16:46:34;;;;;;;;;;;;;;;18.09;43.01;98149.31;10160861;28;861;-70
2024/02/25 16:51:30;;;;;;;;;;;;;;;18.07;42.97;98145.91;10161502;28;774;-70
2024/02/25 16:56:27;;;;;;;;;;;;;;;18.05;42.78;98150.47;10161013;28;813;-70
2024/02/25 17:01:23;;;;;;;;;;;;;;;18.03;42.91;98157.66;10160637;28;1894;-70
2024/02/25 17:06:20;;;;;;;;;;;;;;;18.02;43.01;98153.31;10160352;28;924;-70
2024/02/25 17:11:17;;;;;;;;;;;;;;;18.00;43.00;98151.72;10159727;28;873;-70
2024/02/25 17:16:13;;;;;;;;;;;;;;;17.99;43.09;98158.78;10160593;28;844;-70
2024/02/25 17:21:09;;;;;;;;;;;;;;;17.99;43.12;98158.78;10159908;28;1898;-71
2024/02/25 17:26:04;;;;;;;;;;;;;;;17.99;43.23;98160.59;10159565;28;929;-71
2024/02/25 17:31:00;;;;;;;;;;;;;;;17.96;43.34;98159.84;10158601;28;1204;-71
2024/02/25 17:35:57;;;;;;;;;;;;;;;17.96;43.16;98157.22;10158807;28;942;-71
2024/02/25 17:40:53;;;;;;;;;;;;;;;17.96;43.22;98161.66;10158559;28;1906;-71
2024/02/25 17:45:49;;;;;;;;;;;;;;;17.96;43.15;98164.28;10158677;28;885;-70
2024/02/25 17:50:44;;;;;;;;;;;;;;;17.96;43.28;98164.28;10159240;28;818;-70
2024/02/25 17:55:40;;;;;;;;;;;;;;;17.95;43.25;98174.00;10157722;28;921;-70
2024/02/25 18:00:36;;;;;;;;;;;;;;;17.95;43.28;98175.78;10158962;28;1952;-71
2024/02/25 18:05:32;;;;;;;;;;;;;;;17.94;43.25;98177.56;10159254;28;837;-70
2024/02/25 18:10:28;;;;;;;;;;;;;;;17.95;43.31;98178.44;10158906;28;815;-70
2024/02/25 18:15:27;;;;;;;;;;;;;;;17.95;43.43;98183.69;10158376;28;802;-70
2024/02/25 18:20:24;;;;;;;;;;;;;;;17.94;43.42;98193.38;10157793;28;1081;-71
2024/02/25 18:25:22;;;;;;;;;;;;;;;17.94;43.49;98185.47;10158103;28;1965;-70
2024/02/25 18:30:18;;;;;;;;;;;;;;;17.93;43.33;98186.44;10157522;28;1148;-70
2024/02/25 18:35:14;;;;;;;;;;;;;;;17.94;43.36;98188.09;10160063;28;888;-71
2024/02/25 18:40:12;;;;;;;;;;;;;;;17.95;43.31;98188.97;10164789;28;877;-70
2024/02/25 18:45:08;;;;;;;;;;;;;;;17.93;43.49;98186.44;10163975;28;1963;-70
2024/02/25 18:50:04;;;;;;;;;;;;;;;17.95;43.49;98183.69;10164252;28;787;-71
2024/02/25 18:55:00;;;;;;;;;;;;;;;17.95;43.31;98174.00;10164372;28;850;-70
2024/02/25 18:59:56;;;;;;;;;;;;;;;17.95;43.35;98174.00;10164201;28;886;-70
2024/02/25 19:04:51;;;;;;;;;;;;;;;17.96;43.38;98166.91;10163453;28;1898;-71
2024/02/25 19:09:47;;;;;;;;;;;;;;;17.96;43.51;98165.13;10163953;28;909;-70
2024/02/25 19:14:45;;;;;;;;;;;;;;;17.95;43.45;98168.72;10163816;28;929;-70
2024/02/25 19:19:41;;;;;;;;;;;;;;;17.97;43.35;98173.88;10162986;28;952;-70
2024/02/25 19:24:37;;;;;;;;;;;;;;;17.96;43.52;98173.03;10162868;28;1962;-71
2024/02/25 19:29:33;;;;;;;;;;;;;;;17.98;43.39;98169.47;10162911;28;1292;-70
2024/02/25 19:34:31;;;;;;;;;;;;;;;17.98;43.36;98164.19;10163135;28;939;-70
2024/02/25 19:39:27;;;;;;;;;;;;;;;17.98;43.37;98151.84;10162513;28;758;-70
2024/02/25 19:44:23;;;;;;;;;;;;;;;17.98;43.52;98143.94;10162865;28;1973;-71
2024/02/25 19:49:19;;;;;;;;;;;;;;;17.99;43.46;98140.34;10161181;28;888;-70
2024/02/25 19:54:15;;;;;;;;;;;;;;;17.99;43.60;98135.06;10162066;28;766;-70
2024/02/25 19:59:11;;;;;;;;;;;;;;;18.00;43.35;98139.41;10161875;28;834;-71
2024/02/25 20:04:09;;;;;;;;;;;;;;;18.01;43.56;98140.25;10162414;28;1894;-70
2024/02/25 20:09:08;;;;;;;;;;;;;;;18.01;43.34;98137.63;10161531;28;989;-71
2024/02/25 20:14:04;;;;;;;;;;;;;;;18.01;43.48;98125.28;10161973;28;918;-70
2024/02/25 20:19:00;;;;;;;;;;;;;;;18.01;43.41;98120.00;10160675;28;1508;-71
2024/02/25 20:23:56;;;;;;;;;;;;;;;18.02;43.32;98110.28;10161038;28;1894;-71
2024/02/25 20:28:52;;;;;;;;;;;;;;;18.02;43.50;98112.94;10160618;28;1363;-70
2024/02/25 20:33:48;;;;;;;;;;;;;;;18.02;43.56;98110.28;10161439;28;803;-70
2024/02/25 20:38:44;;;;;;;;;;;;;;;18.02;43.65;98111.13;10160610;28;771;-70
2024/02/25 20:43:40;;;;;;;;;;;;;;;18.03;43.47;98098.81;10161066;28;1906;-70
2024/02/25 20:48:36;;;;;;;;;;;;;;;18.02;43.40;98097.09;10160417;28;923;-71
2024/02/25 20:53:32;;;;;;;;;;;;;;;18.00;43.34;98104.28;10160173;28;810;-70
2024/02/25 20:58:28;;;;;;;;;;;;;;;18.00;43.39;98096.38;10160061;28;893;-70
2024/02/25 21:03:23;;;;;;;;;;;;;;;17.99;43.40;98090.25;10160588;28;1867;-70
2024/02/25 21:08:19;;;;;;;;;;;;;;;17.99;43.37;98102.59;10159674;28;962;-70
2024/02/25 21:13:15;;;;;;;;;;;;;;;17.98;43.29;98087.75;10159028;28;826;-70
2024/02/25 21:18:11;;;;;;;;;;;;;;;17.97;43.60;98086.88;10159397;28;787;-70
2024/02/25 21:23:07;;;;;;;;;;;;;;;17.96;43.58;98087.84;10159264;28;1977;-71
2024/02/25 21:28:03;;;;;;;;;;;;;;;17.95;43.53;98086.16;10159302;28;914;-70
2024/02/25 21:32:59;;;;;;;;;;;;;;;17.94;43.32;98080.03;10159676;28;1144;-70
2024/02/25 21:37:55;;;;;;;;;;;;;;;17.95;43.29;98075.63;10159756;28;786;-70
2024/02/25 21:42:53;;;;;;;;;;;;;;;17.94;43.52;98071.28;10158951;28;2007;-70
2024/02/25 21:47:49;;;;;;;;;;;;;;;17.92;43.40;98062.63;10158803;28;902;-70
2024/02/25 21:52:46;;;;;;;;;;;;;;;17.91;43.40;98053.88;10159760;28;845;-70
2024/02/25 21:57:42;;;;;;;;;;;;;;;17.90;43.27;98059.28;10159184;28;901;-70
2024/02/25 22:02:38;;;;;;;;;;;;;;;17.87;43.22;98049.81;10158310;28;1887;-70
2024/02/25 22:07:34;;;;;;;;;;;;;;;17.85;43.43;98054.34;10157734;28;1000;-70
2024/02/25 22:12:30;;;;;;;;;;;;;;;17.84;43.37;98046.53;10156595;28;898;-70
2024/02/25 22:17:25;;;;;;;;;;;;;;;17.83;43.46;98042.22;10158077;28;764;-70
2024/02/25 22:22:22;;;;;;;;;;;;;;;17.82;43.33;98043.19;10157926;28;1919;-70
2024/02/25 22:27:18;;;;;;;;;;;;;;;17.79;43.44;98036.31;10157851;28;771;-70
2024/02/25 22:32:14;;;;;;;;;;;;;;;17.79;43.27;98032.78;10158367;28;1282;-70
2024/02/25 22:37:09;;;;;;;;;;;;;;;17.75;43.27;98025.09;10157606;28;825;-70
2024/02/25 22:42:05;;;;;;;;;;;;;;;17.74;43.34;98028.69;10157329;28;2036;-70
2024/02/25 22:47:03;;;;;;;;;;;;;;;17.73;43.42;98029.63;10156677;28;1112;-70
2024/02/25 22:51:59;;;;;;;;;;;;;;;17.72;43.32;98035.03;10157802;28;771;-70
2024/02/25 22:56:54;;;;;;;;;;;;;;;17.70;43.50;98035.13;10157134;28;846;-70
2024/02/25 23:01:52;;;;;;;;;;;;;;;17.69;43.43;98038.72;10156904;28;1895;-70
2024/02/25 23:06:48;;;;;;;;;;;;;;;17.67;43.33;98026.59;10157043;28;931;-70
2024/02/25 23:11:44;;;;;;;;;;;;;;;17.67;43.51;98031.88;10156782;28;885;-70
2024/02/25 23:16:44;;;;;;;;;;;;;;;17.65;43.51;98029.34;10157177;28;930;-70
2024/02/25 23:21:40;;;;;;;;;;;;;;;17.64;43.33;98025.03;10158832;28;1961;-70
2024/02/25 23:26:36;;;;;;;;;;;;;;;17.63;43.23;98025.13;10163814;28;841;-70
2024/02/25 23:31:32;;;;;;;;;;;;;;;17.63;43.43;98019.84;10163549;28;1158;-70
2024/02/25 23:36:28;;;;;;;;;;;;;;;17.62;43.54;98024.28;10162984;28;856;-71
2024/02/25 23:41:23;;;;;;;;;;;;;;;17.61;43.54;98017.34;10162082;28;1918;-70
2024/02/25 23:46:19;;;;;;;;;;;;;;;17.61;43.52;98017.34;10162504;28;897;-70
2024/02/25 23:51:16;;;;;;;;;;;;;;;17.61;43.50;98016.50;10162446;28;837;-70
2024/02/25 23:56:12;;;;;;;;;;;;;;;17.60;43.45;98012.16;10162229;28;965;-70
